PWSweather.com
Personal Weather Stations
Station Observations
KCAFRAZI5
West End Drive Area, Frazier Park, CA 93225

West End Drive AreaFrazier Park, CA 93225

Lat: 34.82109, Lon: -118.96053

Elevation: 4940

Station Type: Davis Vantage Pro 2

http://www.fpweather.com

High Low Average
Temperature 38.9°F3.8°C 14.2°F-9.9°C 27.1°F-2.7°C
Dew Point 9.9°F-12.3°C 1.5°F-16.9°C 6.4°F-14.2°C
Winds 9.0 mph 14.5 kmh Calm Calm 3.0 mph S4.8 kmh S
Wind Gusts 15.0 mph24.1 kmh 3.0 mph4.8 kmh 8.0 mph12.9 kmh
Humidity 65% 26% 43%
Pressure 30.20 in1022.7 mb 30.03 in1016.9 mb -
Precipitation 0.00 in0.0 mm - -
Hour Temp Dew Point Humidity Winds Wind Gusts Pressure Precip Precip Rate Daily Precip Total
12:00 AM 17.9°F-7.8°C 2.4°F-16.4°C 50% 5.0 mph S8.0 kmh S 7.0 mph11.3 kmh 30.11 in1019.6 mb 0.00 in0.0 mm 0.00 in0.0 mm 0.00 in0.0 mm
12:15 AM 18.7°F-7.4°C 2.3°F-16.5°C 48% 5.0 mph SSE8.0 kmh SSE 7.0 mph11.3 kmh 30.11 in1019.6 mb 0.00 in0.0 mm 0.00 in0.0 mm 0.00 in0.0 mm
12:30 AM 18.8°F-7.3°C 2.8°F-16.2°C 49% 2.0 mph S3.2 kmh S 5.0 mph8.0 kmh 30.10 in1019.3 mb 0.00 in0.0 mm 0.00 in0.0 mm 0.00 in0.0 mm
12:45 AM 19.3°F-7.1°C 3.7°F-15.7°C 50% 4.0 mph S6.4 kmh S 7.0 mph11.3 kmh 30.10 in1019.3 mb 0.00 in0.0 mm 0.00 in0.0 mm 0.00 in0.0 mm
01:00 AM 19.9°F-6.7°C 1.5°F-16.9°C 44% 3.0 mph S4.8 kmh S 6.0 mph9.7 kmh 30.09 in1019.0 mb 0.00 in0.0 mm 0.00 in0.0 mm 0.00 in0.0 mm
01:15 AM 20.9°F-6.2°C 2.9°F-16.2°C 45% 3.0 mph S4.8 kmh S 6.0 mph9.7 kmh 30.07 in1018.3 mb 0.00 in0.0 mm 0.00 in0.0 mm 0.00 in0.0 mm
01:30 AM 21.0°F-6.1°C 3.0°F-16.1°C 45% 3.0 mph S4.8 kmh S 6.0 mph9.7 kmh 30.07 in1018.3 mb 0.00 in0.0 mm 0.00 in0.0 mm 0.00 in0.0 mm
01:45 AM 21.7°F-5.7°C 3.2°F-16.0°C 44% 4.0 mph S6.4 kmh S 6.0 mph9.7 kmh 30.07 in1018.3 mb 0.00 in0.0 mm 0.00 in0.0 mm 0.00 in0.0 mm
02:00 AM 22.3°F-5.4°C 4.2°F-15.4°C 45% 3.0 mph S4.8 kmh S 5.0 mph8.0 kmh 30.06 in1017.9 mb 0.00 in0.0 mm 0.00 in0.0 mm 0.00 in0.0 mm
02:15 AM 23.4°F-4.8°C 5.2°F-14.9°C 45% Calm Calm 4.0 mph6.4 kmh 30.05 in1017.6 mb 0.00 in0.0 mm 0.00 in0.0 mm 0.00 in0.0 mm
02:30 AM 24.0°F-4.4°C 6.7°F-14.1°C 47% 3.0 mph S4.8 kmh S 5.0 mph8.0 kmh 30.05 in1017.6 mb 0.00 in0.0 mm 0.00 in0.0 mm 0.00 in0.0 mm
02:45 AM 23.1°F-4.9°C 6.8°F-14.0°C 49% 2.0 mph S3.2 kmh S 4.0 mph6.4 kmh 30.04 in1017.3 mb 0.00 in0.0 mm 0.00 in0.0 mm 0.00 in0.0 mm
03:00 AM 23.1°F-4.9°C 8.5°F-13.1°C 53% 2.0 mph SSE3.2 kmh SSE 5.0 mph8.0 kmh 30.05 in1017.6 mb 0.00 in0.0 mm 0.00 in0.0 mm 0.00 in0.0 mm
03:15 AM 23.8°F-4.6°C 9.2°F-12.7°C 53% 3.0 mph SE4.8 kmh SE 3.0 mph4.8 kmh 30.05 in1017.6 mb 0.00 in0.0 mm 0.00 in0.0 mm 0.00 in0.0 mm
03:30 AM 24.6°F-4.1°C 9.5°F-12.5°C 52% 3.0 mph SSE4.8 kmh SSE 5.0 mph8.0 kmh 30.03 in1016.9 mb 0.00 in0.0 mm 0.00 in0.0 mm 0.00 in0.0 mm
03:45 AM 24.1°F-4.4°C 9.9°F-12.3°C 54% 3.0 mph SSE4.8 kmh SSE 4.0 mph6.4 kmh 30.03 in1016.9 mb 0.00 in0.0 mm 0.00 in0.0 mm 0.00 in0.0 mm
04:00 AM 23.4°F-4.8°C 9.6°F-12.4°C 55% 2.0 mph SSE3.2 kmh SSE 6.0 mph9.7 kmh 30.03 in1016.9 mb 0.00 in0.0 mm 0.00 in0.0 mm 0.00 in0.0 mm
04:15 AM 23.2°F-4.9°C 9.4°F-12.6°C 55% 2.0 mph S3.2 kmh S 4.0 mph6.4 kmh 30.04 in1017.3 mb 0.00 in0.0 mm 0.00 in0.0 mm 0.00 in0.0 mm
04:30 AM 21.8°F-5.7°C 8.9°F-12.8°C 57% 4.0 mph SE6.4 kmh SE 9.0 mph14.5 kmh 30.07 in1018.3 mb 0.00 in0.0 mm 0.00 in0.0 mm 0.00 in0.0 mm
04:45 AM 20.6°F-6.3°C 8.2°F-13.2°C 58% 8.0 mph S12.9 kmh S 11.0 mph17.7 kmh 30.08 in1018.6 mb 0.00 in0.0 mm 0.00 in0.0 mm 0.00 in0.0 mm
05:00 AM 20.2°F-6.6°C 7.8°F-13.4°C 58% 3.0 mph S4.8 kmh S 10.0 mph16.1 kmh 30.09 in1019.0 mb 0.00 in0.0 mm 0.00 in0.0 mm 0.00 in0.0 mm
05:15 AM 19.3°F-7.1°C 7.7°F-13.5°C 60% 4.0 mph S6.4 kmh S 6.0 mph9.7 kmh 30.09 in1019.0 mb 0.00 in0.0 mm 0.00 in0.0 mm 0.00 in0.0 mm
05:30 AM 18.4°F-7.6°C 7.2°F-13.8°C 61% 2.0 mph S3.2 kmh S 5.0 mph8.0 kmh 30.12 in1020.0 mb 0.00 in0.0 mm 0.00 in0.0 mm 0.00 in0.0 mm
05:45 AM 16.9°F-8.4°C 6.5°F-14.2°C 63% 4.0 mph S6.4 kmh S 8.0 mph12.9 kmh 30.12 in1020.0 mb 0.00 in0.0 mm 0.00 in0.0 mm 0.00 in0.0 mm
06:00 AM 15.8°F-9.0°C 5.8°F-14.6°C 64% 4.0 mph SSE6.4 kmh SSE 7.0 mph11.3 kmh 30.14 in1020.7 mb 0.00 in0.0 mm 0.00 in0.0 mm 0.00 in0.0 mm
06:15 AM 15.3°F-9.3°C 5.3°F-14.8°C 64% 3.0 mph SSE4.8 kmh SSE 7.0 mph11.3 kmh 30.15 in1021.0 mb 0.00 in0.0 mm 0.00 in0.0 mm 0.00 in0.0 mm
06:30 AM 14.5°F-9.7°C 4.9°F-15.1°C 65% 4.0 mph S6.4 kmh S 7.0 mph11.3 kmh 30.16 in1021.3 mb 0.00 in0.0 mm 0.00 in0.0 mm 0.00 in0.0 mm
06:45 AM 14.2°F-9.9°C 4.6°F-15.2°C 65% 3.0 mph S4.8 kmh S 6.0 mph9.7 kmh 30.16 in1021.3 mb 0.00 in0.0 mm 0.00 in0.0 mm 0.00 in0.0 mm
07:00 AM 14.2°F-9.9°C 4.6°F-15.2°C 65% 4.0 mph S6.4 kmh S 6.0 mph9.7 kmh 30.17 in1021.7 mb 0.00 in0.0 mm 0.00 in0.0 mm 0.00 in0.0 mm
07:15 AM 15.2°F-9.3°C 4.5°F-15.3°C 62% 3.0 mph S4.8 kmh S 9.0 mph14.5 kmh 30.17 in1021.7 mb 0.00 in0.0 mm 0.00 in0.0 mm 0.00 in0.0 mm
07:30 AM 16.5°F-8.6°C 4.7°F-15.2°C 59% 4.0 mph S6.4 kmh S 8.0 mph12.9 kmh 30.17 in1021.7 mb 0.00 in0.0 mm 0.00 in0.0 mm 0.00 in0.0 mm
07:45 AM 18.2°F-7.7°C 5.2°F-14.9°C 56% 3.0 mph S4.8 kmh S 10.0 mph16.1 kmh 30.17 in1021.7 mb 0.00 in0.0 mm 0.00 in0.0 mm 0.00 in0.0 mm
08:00 AM 20.4°F-6.4°C 5.6°F-14.7°C 52% 3.0 mph S4.8 kmh S 11.0 mph17.7 kmh 30.16 in1021.3 mb 0.00 in0.0 mm 0.00 in0.0 mm 0.00 in0.0 mm
08:15 AM 24.9°F-3.9°C 5.6°F-14.7°C 43% 3.0 mph SSE4.8 kmh SSE 9.0 mph14.5 kmh 30.14 in1020.7 mb 0.00 in0.0 mm 0.00 in0.0 mm 0.00 in0.0 mm
08:30 AM 28.1°F-2.2°C 3.4°F-15.9°C 34% 1.0 mph SE1.6 kmh SE 6.0 mph9.7 kmh 30.15 in1021.0 mb 0.00 in0.0 mm 0.00 in0.0 mm 0.00 in0.0 mm
08:45 AM 30.5°F-0.8°C 3.5°F-15.8°C 31% 2.0 mph SE3.2 kmh SE 6.0 mph9.7 kmh 30.14 in1020.7 mb 0.00 in0.0 mm 0.00 in0.0 mm 0.00 in0.0 mm
09:00 AM 30.8°F-0.7°C 4.4°F-15.3°C 32% Calm Calm 9.0 mph14.5 kmh 30.12 in1020.0 mb 0.00 in0.0 mm 0.00 in0.0 mm 0.00 in0.0 mm
09:15 AM 31.8°F-0.1°C 5.3°F-14.8°C 32% 2.0 mph SE3.2 kmh SE 13.0 mph20.9 kmh 30.12 in1020.0 mb 0.00 in0.0 mm 0.00 in0.0 mm 0.00 in0.0 mm
09:30 AM 32.0°F0.0°C 6.2°F-14.3°C 33% 3.0 mph E4.8 kmh E 13.0 mph20.9 kmh 30.12 in1020.0 mb 0.00 in0.0 mm 0.00 in0.0 mm 0.00 in0.0 mm
09:45 AM 32.5°F0.3°C 3.8°F-15.7°C 29% 1.0 mph SE1.6 kmh SE 12.0 mph19.3 kmh 30.12 in1020.0 mb 0.00 in0.0 mm 0.00 in0.0 mm 0.00 in0.0 mm
10:00 AM 33.3°F0.7°C 4.5°F-15.3°C 29% 3.0 mph ESE4.8 kmh ESE 8.0 mph12.9 kmh 30.12 in1020.0 mb 0.00 in0.0 mm 0.00 in0.0 mm 0.00 in0.0 mm
10:15 AM 35.1°F1.7°C 5.3°F-14.8°C 28% 4.0 mph ESE6.4 kmh ESE 7.0 mph11.3 kmh 30.11 in1019.6 mb 0.00 in0.0 mm 0.00 in0.0 mm 0.00 in0.0 mm
10:30 AM 35.4°F1.9°C 4.8°F-15.1°C 27% 3.0 mph SSE4.8 kmh SSE 12.0 mph19.3 kmh 30.11 in1019.6 mb 0.00 in0.0 mm 0.00 in0.0 mm 0.00 in0.0 mm
10:45 AM 35.5°F1.9°C 4.8°F-15.1°C 27% 6.0 mph SE9.7 kmh SE 11.0 mph17.7 kmh 30.11 in1019.6 mb 0.00 in0.0 mm 0.00 in0.0 mm 0.00 in0.0 mm
11:00 AM 35.6°F2.0°C 4.9°F-15.1°C 27% 1.0 mph WSW1.6 kmh WSW 11.0 mph17.7 kmh 30.11 in1019.6 mb 0.00 in0.0 mm 0.00 in0.0 mm 0.00 in0.0 mm
11:15 AM 36.1°F2.3°C 4.5°F-15.3°C 26% 5.0 mph SSE8.0 kmh SSE 11.0 mph17.7 kmh 30.11 in1019.6 mb 0.00 in0.0 mm 0.00 in0.0 mm 0.00 in0.0 mm
11:30 AM 37.4°F3.0°C 5.7°F-14.6°C 26% 5.0 mph S8.0 kmh S 9.0 mph14.5 kmh 30.10 in1019.3 mb 0.00 in0.0 mm 0.00 in0.0 mm 0.00 in0.0 mm
11:45 AM 38.4°F3.6°C 7.4°F-13.7°C 27% 3.0 mph SW4.8 kmh SW 7.0 mph11.3 kmh 30.08 in1018.6 mb 0.00 in0.0 mm 0.00 in0.0 mm 0.00 in0.0 mm
12:00 PM 36.4°F2.4°C 7.9°F-13.4°C 30% 1.0 mph SSW1.6 kmh SSW 12.0 mph19.3 kmh 30.08 in1018.6 mb 0.00 in0.0 mm 0.00 in0.0 mm 0.00 in0.0 mm
12:15 PM 36.5°F2.5°C 8.0°F-13.3°C 30% 1.0 mph SSE1.6 kmh SSE 13.0 mph20.9 kmh 30.09 in1019.0 mb 0.00 in0.0 mm 0.00 in0.0 mm 0.00 in0.0 mm
12:30 PM 36.2°F2.3°C 7.8°F-13.4°C 30% 2.0 mph W3.2 kmh W 7.0 mph11.3 kmh 30.06 in1017.9 mb 0.00 in0.0 mm 0.00 in0.0 mm 0.00 in0.0 mm
12:45 PM 36.2°F2.3°C 9.2°F-12.7°C 32% 4.0 mph SSE6.4 kmh SSE 10.0 mph16.1 kmh 30.06 in1017.9 mb 0.00 in0.0 mm 0.00 in0.0 mm 0.00 in0.0 mm
01:00 PM 36.8°F2.7°C 9.7°F-12.4°C 32% 3.0 mph WNW4.8 kmh WNW 13.0 mph20.9 kmh 30.06 in1017.9 mb 0.00 in0.0 mm 0.00 in0.0 mm 0.00 in0.0 mm
01:15 PM 35.9°F2.2°C 8.2°F-13.2°C 31% 4.0 mph WNW6.4 kmh WNW 13.0 mph20.9 kmh 30.05 in1017.6 mb 0.00 in0.0 mm 0.00 in0.0 mm 0.00 in0.0 mm
01:30 PM 37.1°F2.8°C 8.6°F-13.0°C 30% 4.0 mph S6.4 kmh S 10.0 mph16.1 kmh 30.06 in1017.9 mb 0.00 in0.0 mm 0.00 in0.0 mm 0.00 in0.0 mm
01:45 PM 38.5°F3.6°C 8.2°F-13.2°C 28% 4.0 mph SW6.4 kmh SW 12.0 mph19.3 kmh 30.05 in1017.6 mb 0.00 in0.0 mm 0.00 in0.0 mm 0.00 in0.0 mm
02:00 PM 38.9°F3.8°C 7.0°F-13.9°C 26% 4.0 mph SE6.4 kmh SE 7.0 mph11.3 kmh 30.05 in1017.6 mb 0.00 in0.0 mm 0.00 in0.0 mm 0.00 in0.0 mm
02:15 PM 38.7°F3.7°C 7.6°F-13.6°C 27% 6.0 mph SSE9.7 kmh SSE 13.0 mph20.9 kmh 30.04 in1017.3 mb 0.00 in0.0 mm 0.00 in0.0 mm 0.00 in0.0 mm
02:30 PM 38.7°F3.7°C 8.4°F-13.1°C 28% 6.0 mph SE9.7 kmh SE 11.0 mph17.7 kmh 30.04 in1017.3 mb 0.00 in0.0 mm 0.00 in0.0 mm 0.00 in0.0 mm
02:45 PM 38.5°F3.6°C 7.4°F-13.7°C 27% 5.0 mph SE8.0 kmh SE 15.0 mph24.1 kmh 30.06 in1017.9 mb 0.00 in0.0 mm 0.00 in0.0 mm 0.00 in0.0 mm
03:00 PM 37.2°F2.9°C 8.6°F-13.0°C 30% 1.0 mph S1.6 kmh S 10.0 mph16.1 kmh 30.06 in1017.9 mb 0.00 in0.0 mm 0.00 in0.0 mm 0.00 in0.0 mm
03:15 PM 37.5°F3.1°C 8.2°F-13.2°C 29% 2.0 mph SSE3.2 kmh SSE 4.0 mph6.4 kmh 30.06 in1017.9 mb 0.00 in0.0 mm 0.00 in0.0 mm 0.00 in0.0 mm
03:30 PM 37.8°F3.2°C 7.6°F-13.6°C 28% 9.0 mph S14.5 kmh S 10.0 mph16.1 kmh 30.06 in1017.9 mb 0.00 in0.0 mm 0.00 in0.0 mm 0.00 in0.0 mm
03:45 PM 37.1°F2.8°C 8.6°F-13.0°C 30% 3.0 mph SSW4.8 kmh SSW 10.0 mph16.1 kmh 30.07 in1018.3 mb 0.00 in0.0 mm 0.00 in0.0 mm 0.00 in0.0 mm
04:00 PM 36.1°F2.3°C 8.4°F-13.1°C 31% 1.0 mph S1.6 kmh S 5.0 mph8.0 kmh 30.07 in1018.3 mb 0.00 in0.0 mm 0.00 in0.0 mm 0.00 in0.0 mm
04:15 PM 35.9°F2.2°C 7.5°F-13.6°C 30% 4.0 mph S6.4 kmh S 7.0 mph11.3 kmh 30.08 in1018.6 mb 0.00 in0.0 mm 0.00 in0.0 mm 0.00 in0.0 mm
04:30 PM 35.2°F1.8°C 7.6°F-13.6°C 31% 4.0 mph S6.4 kmh S 10.0 mph16.1 kmh 30.09 in1019.0 mb 0.00 in0.0 mm 0.00 in0.0 mm 0.00 in0.0 mm
04:45 PM 34.8°F1.6°C 6.5°F-14.2°C 30% 5.0 mph SE8.0 kmh SE 15.0 mph24.1 kmh 30.10 in1019.3 mb 0.00 in0.0 mm 0.00 in0.0 mm 0.00 in0.0 mm
05:00 PM 33.9°F1.1°C 5.8°F-14.6°C 30% 4.0 mph S6.4 kmh S 7.0 mph11.3 kmh 30.11 in1019.6 mb 0.00 in0.0 mm 0.00 in0.0 mm 0.00 in0.0 mm
05:15 PM 33.0°F0.6°C 7.1°F-13.8°C 33% 4.0 mph SE6.4 kmh SE 8.0 mph12.9 kmh 30.13 in1020.3 mb 0.00 in0.0 mm 0.00 in0.0 mm 0.00 in0.0 mm
05:30 PM 32.3°F0.2°C 7.1°F-13.8°C 34% 6.0 mph SE9.7 kmh SE 9.0 mph14.5 kmh 30.16 in1021.3 mb 0.00 in0.0 mm 0.00 in0.0 mm 0.00 in0.0 mm
05:45 PM 31.5°F-0.3°C 7.0°F-13.9°C 35% 3.0 mph S4.8 kmh S 6.0 mph9.7 kmh 30.16 in1021.3 mb 0.00 in0.0 mm 0.00 in0.0 mm 0.00 in0.0 mm
06:00 PM 30.8°F-0.7°C 7.6°F-13.6°C 37% 2.0 mph SSE3.2 kmh SSE 4.0 mph6.4 kmh 30.17 in1021.7 mb 0.00 in0.0 mm 0.00 in0.0 mm 0.00 in0.0 mm
06:15 PM 30.2°F-1.0°C 7.7°F-13.5°C 38% 4.0 mph S6.4 kmh S 6.0 mph9.7 kmh 30.18 in1022.0 mb 0.00 in0.0 mm 0.00 in0.0 mm 0.00 in0.0 mm
06:30 PM 30.0°F-1.1°C 8.1°F-13.3°C 39% 3.0 mph S4.8 kmh S 9.0 mph14.5 kmh 30.18 in1022.0 mb 0.00 in0.0 mm 0.00 in0.0 mm 0.00 in0.0 mm
06:45 PM 29.6°F-1.3°C 7.7°F-13.5°C 39% 4.0 mph S6.4 kmh S 5.0 mph8.0 kmh 30.19 in1022.4 mb 0.00 in0.0 mm 0.00 in0.0 mm 0.00 in0.0 mm
07:00 PM 29.3°F-1.5°C 7.4°F-13.7°C 39% 2.0 mph S3.2 kmh S 4.0 mph6.4 kmh 30.20 in1022.7 mb 0.00 in0.0 mm 0.00 in0.0 mm 0.00 in0.0 mm
07:15 PM 29.3°F-1.5°C 7.4°F-13.7°C 39% 4.0 mph SSE6.4 kmh SSE 5.0 mph8.0 kmh 30.20 in1022.7 mb 0.00 in0.0 mm 0.00 in0.0 mm 0.00 in0.0 mm
07:30 PM 28.7°F-1.8°C 7.4°F-13.7°C 40% 3.0 mph SSE4.8 kmh SSE 5.0 mph8.0 kmh 30.16 in1021.3 mb 0.00 in0.0 mm 0.00 in0.0 mm 0.00 in0.0 mm
07:45 PM 28.7°F-1.8°C 7.4°F-13.7°C 40% Calm Calm 4.0 mph6.4 kmh 30.16 in1021.3 mb 0.00 in0.0 mm 0.00 in0.0 mm 0.00 in0.0 mm
08:00 PM 27.1°F-2.7°C 7.6°F-13.6°C 43% 3.0 mph SSE4.8 kmh SSE 6.0 mph9.7 kmh 30.16 in1021.3 mb 0.00 in0.0 mm 0.00 in0.0 mm 0.00 in0.0 mm
08:15 PM 26.0°F-3.3°C 7.6°F-13.6°C 45% 3.0 mph S4.8 kmh S 7.0 mph11.3 kmh 30.17 in1021.7 mb 0.00 in0.0 mm 0.00 in0.0 mm 0.00 in0.0 mm
08:30 PM 26.0°F-3.3°C 7.6°F-13.6°C 45% 4.0 mph SSE6.4 kmh SSE 5.0 mph8.0 kmh 30.13 in1020.3 mb 0.00 in0.0 mm 0.00 in0.0 mm 0.00 in0.0 mm
08:45 PM 24.7°F-4.1°C 7.8°F-13.4°C 48% 3.0 mph S4.8 kmh S 6.0 mph9.7 kmh 30.13 in1020.3 mb 0.00 in0.0 mm 0.00 in0.0 mm 0.00 in0.0 mm
09:00 PM 22.9°F-5.1°C 6.6°F-14.1°C 49% 6.0 mph S9.7 kmh S 10.0 mph16.1 kmh 30.15 in1021.0 mb 0.00 in0.0 mm 0.00 in0.0 mm 0.00 in0.0 mm
09:15 PM 22.1°F-5.5°C 6.3°F-14.3°C 50% 5.0 mph S8.0 kmh S 5.0 mph8.0 kmh 30.16 in1021.3 mb 0.00 in0.0 mm 0.00 in0.0 mm 0.00 in0.0 mm
09:30 PM 21.2°F-6.0°C 6.3°F-14.3°C 52% 2.0 mph S3.2 kmh S 6.0 mph9.7 kmh 30.15 in1021.0 mb 0.00 in0.0 mm 0.00 in0.0 mm 0.00 in0.0 mm
09:45 PM 20.7°F-6.3°C 6.3°F-14.3°C 53% 3.0 mph S4.8 kmh S 6.0 mph9.7 kmh 30.14 in1020.7 mb 0.00 in0.0 mm 0.00 in0.0 mm 0.00 in0.0 mm
10:00 PM 19.9°F-6.7°C 6.0°F-14.4°C 54% 4.0 mph S6.4 kmh S 6.0 mph9.7 kmh 30.15 in1021.0 mb 0.00 in0.0 mm 0.00 in0.0 mm 0.00 in0.0 mm
10:15 PM 19.3°F-7.1°C 5.8°F-14.6°C 55% 4.0 mph S6.4 kmh S 6.0 mph9.7 kmh 30.14 in1020.7 mb 0.00 in0.0 mm 0.00 in0.0 mm 0.00 in0.0 mm
10:30 PM 18.8°F-7.3°C 5.3°F-14.8°C 55% 5.0 mph S8.0 kmh S 7.0 mph11.3 kmh 30.15 in1021.0 mb 0.00 in0.0 mm 0.00 in0.0 mm 0.00 in0.0 mm
10:45 PM 18.4°F-7.6°C 5.3°F-14.8°C 56% 5.0 mph S8.0 kmh S 8.0 mph12.9 kmh 30.15 in1021.0 mb 0.00 in0.0 mm 0.00 in0.0 mm 0.00 in0.0 mm
11:00 PM 18.2°F-7.7°C 5.5°F-14.7°C 57% 6.0 mph S9.7 kmh S 9.0 mph14.5 kmh 30.15 in1021.0 mb 0.00 in0.0 mm 0.00 in0.0 mm 0.00 in0.0 mm
11:15 PM 18.0°F-7.8°C 5.7°F-14.6°C 58% 4.0 mph SSE6.4 kmh SSE 8.0 mph12.9 kmh 30.16 in1021.3 mb 0.00 in0.0 mm 0.00 in0.0 mm 0.00 in0.0 mm
11:30 PM 17.3°F-8.2°C 5.4°F-14.8°C 59% 4.0 mph S6.4 kmh S 7.0 mph11.3 kmh 30.15 in1021.0 mb 0.00 in0.0 mm 0.00 in0.0 mm 0.00 in0.0 mm
11:45 PM 17.1°F-8.3°C 5.6°F-14.7°C 60% 3.0 mph S4.8 kmh S 10.0 mph16.1 kmh 30.16 in1021.3 mb 0.00 in0.0 mm 0.00 in0.0 mm 0.00 in0.0 mm